sensor_id;sensor_type;location;lat;lon;timestamp;pressure;altitude;pressure_sealevel;temperature;humidity
21956;BME280;11142;49.930;8.606;2022-12-18T00:02:05;101420.72;;;-8.50;100.00
21956;BME280;11142;49.930;8.606;2022-12-18T00:04:35;101410.78;;;-8.45;100.00
21956;BME280;11142;49.930;8.606;2022-12-18T00:07:22;101408.06;;;-8.51;100.00
21956;BME280;11142;49.930;8.606;2022-12-18T00:09:51;101412.41;;;-8.47;100.00
21956;BME280;11142;49.930;8.606;2022-12-18T00:12:32;101405.06;;;-8.65;100.00
21956;BME280;11142;49.930;8.606;2022-12-18T00:15:14;101411.78;;;-8.88;100.00
21956;BME280;11142;49.930;8.606;2022-12-18T00:17:55;101413.84;;;-8.78;100.00
21956;BME280;11142;49.930;8.606;2022-12-18T00:20:30;101421.56;;;-8.73;100.00
21956;BME280;11142;49.930;8.606;2022-12-18T00:23:11;101422.66;;;-8.89;100.00
21956;BME280;11142;49.930;8.606;2022-12-18T00:25:43;101422.91;;;-9.05;100.00
21956;BME280;11142;49.930;8.606;2022-12-18T00:28:11;101422.59;;;-8.90;100.00
21956;BME280;11142;49.930;8.606;2022-12-18T00:30:39;101428.38;;;-8.93;100.00
21956;BME280;11142;49.930;8.606;2022-12-18T00:33:09;101428.59;;;-8.87;100.00
21956;BME280;11142;49.930;8.606;2022-12-18T00:35:44;101429.13;;;-8.95;100.00
21956;BME280;11142;49.930;8.606;2022-12-18T00:38:32;101429.13;;;-8.72;100.00
21956;BME280;11142;49.930;8.606;2022-12-18T00:41:05;101421.75;;;-8.43;100.00
21956;BME280;11142;49.930;8.606;2022-12-18T00:43:36;101412.88;;;-8.07;100.00
21956;BME280;11142;49.930;8.606;2022-12-18T00:46:06;101405.03;;;-7.91;100.00
21956;BME280;11142;49.930;8.606;2022-12-18T00:48:48;101417.50;;;-7.69;100.00
21956;BME280;11142;49.930;8.606;2022-12-18T00:51:17;101413.72;;;-7.55;100.00
21956;BME280;11142;49.930;8.606;2022-12-18T00:53:46;101412.63;;;-7.63;100.00
21956;BME280;11142;49.930;8.606;2022-12-18T00:56:32;101429.94;;;-7.98;100.00
21956;BME280;11142;49.930;8.606;2022-12-18T00:59:05;101425.78;;;-7.98;100.00
21956;BME280;11142;49.930;8.606;2022-12-18T01:01:37;101441.28;;;-8.11;100.00
21956;BME280;11142;49.930;8.606;2022-12-18T01:04:11;101427.63;;;-8.18;100.00
21956;BME280;11142;49.930;8.606;2022-12-18T01:06:40;101430.81;;;-8.23;100.00
21956;BME280;11142;49.930;8.606;2022-12-18T01:09:13;101436.53;;;-8.27;100.00
21956;BME280;11142;49.930;8.606;2022-12-18T01:11:41;101431.22;;;-8.36;100.00
21956;BME280;11142;49.930;8.606;2022-12-18T01:14:13;101434.13;;;-8.49;100.00
21956;BME280;11142;49.930;8.606;2022-12-18T01:16:41;101435.81;;;-8.50;100.00
21956;BME280;11142;49.930;8.606;2022-12-18T01:19:30;101441.47;;;-8.79;100.00
21956;BME280;11142;49.930;8.606;2022-12-18T01:22:00;101433.47;;;-8.68;100.00
21956;BME280;11142;49.930;8.606;2022-12-18T01:24:35;101432.69;;;-8.67;100.00
21956;BME280;11142;49.930;8.606;2022-12-18T01:27:04;101447.44;;;-8.52;100.00
21956;BME280;11142;49.930;8.606;2022-12-18T01:29:46;101443.59;;;-8.42;100.00
21956;BME280;11142;49.930;8.606;2022-12-18T01:32:31;101430.00;;;-8.22;100.00
21956;BME280;11142;49.930;8.606;2022-12-18T01:35:41;101449.81;;;-8.56;100.00
21956;BME280;11142;49.930;8.606;2022-12-18T01:38:10;101454.84;;;-8.56;100.00
21956;BME280;11142;49.930;8.606;2022-12-18T01:40:40;101461.25;;;-8.65;100.00
21956;BME280;11142;49.930;8.606;2022-12-18T01:43:09;101453.81;;;-8.85;100.00
21956;BME280;11142;49.930;8.606;2022-12-18T01:45:45;101456.38;;;-8.84;100.00
21956;BME280;11142;49.930;8.606;2022-12-18T01:48:19;101451.94;;;-8.67;100.00
21956;BME280;11142;49.930;8.606;2022-12-18T01:50:49;101457.25;;;-8.59;100.00
21956;BME280;11142;49.930;8.606;2022-12-18T01:53:19;101460.13;;;-8.49;100.00
21956;BME280;11142;49.930;8.606;2022-12-18T01:55:55;101447.34;;;-8.55;100.00
21956;BME280;11142;49.930;8.606;2022-12-18T01:58:41;101444.47;;;-8.42;100.00
21956;BME280;11142;49.930;8.606;2022-12-18T02:01:12;101445.97;;;-8.47;100.00
21956;BME280;11142;49.930;8.606;2022-12-18T02:03:45;101450.50;;;-8.60;100.00
21956;BME280;11142;49.930;8.606;2022-12-18T02:06:29;101451.94;;;-8.67;100.00
21956;BME280;11142;49.930;8.606;2022-12-18T02:09:06;101450.44;;;-8.62;100.00
21956;BME280;11142;49.930;8.606;2022-12-18T02:11:44;101455.16;;;-8.71;100.00
21956;BME280;11142;49.930;8.606;2022-12-18T02:14:17;101445.84;;;-8.74;100.00
21956;BME280;11142;49.930;8.606;2022-12-18T02:16:57;101444.78;;;-8.56;100.00
21956;BME280;11142;49.930;8.606;2022-12-18T02:19:57;101444.69;;;-8.59;100.00
21956;BME280;11142;49.930;8.606;2022-12-18T02:22:35;101443.34;;;-8.50;100.00
21956;BME280;11142;49.930;8.606;2022-12-18T02:25:25;101432.59;;;-8.70;100.00
21956;BME280;11142;49.930;8.606;2022-12-18T02:28:04;101428.72;;;-8.60;100.00
21956;BME280;11142;49.930;8.606;2022-12-18T02:30:38;101417.75;;;-8.62;100.00
21956;BME280;11142;49.930;8.606;2022-12-18T02:33:14;101414.50;;;-8.59;100.00
21956;BME280;11142;49.930;8.606;2022-12-18T02:35:46;101420.63;;;-8.51;100.00
21956;BME280;11142;49.930;8.606;2022-12-18T02:38:16;101424.09;;;-8.72;100.00
21956;BME280;11142;49.930;8.606;2022-12-18T02:40:49;101417.84;;;-8.83;100.00
21956;BME280;11142;49.930;8.606;2022-12-18T02:43:24;101422.88;;;-8.83;100.00
21956;BME280;11142;49.930;8.606;2022-12-18T02:46:23;101416.03;;;-8.87;100.00
21956;BME280;11142;49.930;8.606;2022-12-18T02:48:57;101410.75;;;-8.71;100.00
21956;BME280;11142;49.930;8.606;2022-12-18T02:51:36;101410.66;;;-8.50;100.00
21956;BME280;11142;49.930;8.606;2022-12-18T02:54:17;101401.50;;;-8.46;100.00
21956;BME280;11142;49.930;8.606;2022-12-18T02:56:54;101402.81;;;-8.57;100.00
21956;BME280;11142;49.930;8.606;2022-12-18T02:59:26;101407.84;;;-8.57;100.00
21956;BME280;11142;49.930;8.606;2022-12-18T03:02:17;101416.72;;;-8.67;100.00
21956;BME280;11142;49.930;8.606;2022-12-18T03:04:49;101404.16;;;-8.67;100.00
21956;BME280;11142;49.930;8.606;2022-12-18T03:07:33;101410.31;;;-8.59;100.00
21956;BME280;11142;49.930;8.606;2022-12-18T03:10:07;101427.19;;;-8.56;100.00
21956;BME280;11142;49.930;8.606;2022-12-18T03:12:37;101446.59;;;-8.52;100.00
21956;BME280;11142;49.930;8.606;2022-12-18T03:15:14;101444.06;;;-8.52;100.00
21956;BME280;11142;49.930;8.606;2022-12-18T03:17:55;101445.50;;;-8.59;100.00
21956;BME280;11142;49.930;8.606;2022-12-18T03:20:31;101441.81;;;-8.69;100.00
21956;BME280;11142;49.930;8.606;2022-12-18T03:23:04;101441.13;;;-8.65;100.00
21956;BME280;11142;49.930;8.606;2022-12-18T03:25:39;101436.75;;;-8.70;100.00
21956;BME280;11142;49.930;8.606;2022-12-18T03:28:08;101434.06;;;-8.75;100.00
21956;BME280;11142;49.930;8.606;2022-12-18T03:30:40;101428.25;;;-8.74;100.00
21956;BME280;11142;49.930;8.606;2022-12-18T03:33:16;101427.13;;;-8.82;100.00
21956;BME280;11142;49.930;8.606;2022-12-18T03:35:52;101416.59;;;-8.94;100.00
21956;BME280;11142;49.930;8.606;2022-12-18T03:38:22;101417.34;;;-8.96;100.00
21956;BME280;11142;49.930;8.606;2022-12-18T03:40:54;101410.56;;;-8.99;100.00
21956;BME280;11142;49.930;8.606;2022-12-18T03:43:30;101412.06;;;-9.04;100.00
21956;BME280;11142;49.930;8.606;2022-12-18T03:46:11;101414.47;;;-9.07;100.00
21956;BME280;11142;49.930;8.606;2022-12-18T03:48:52;101407.66;;;-9.09;100.00
21956;BME280;11142;49.930;8.606;2022-12-18T03:51:42;101408.81;;;-9.01;100.00
21956;BME280;11142;49.930;8.606;2022-12-18T03:54:16;101401.50;;;-8.94;100.00
21956;BME280;11142;49.930;8.606;2022-12-18T03:56:57;101405.38;;;-8.80;100.00
21956;BME280;11142;49.930;8.606;2022-12-18T03:59:29;101411.09;;;-8.84;100.00
21956;BME280;11142;49.930;8.606;2022-12-18T04:02:08;101405.66;;;-8.72;100.00
21956;BME280;11142;49.930;8.606;2022-12-18T04:04:45;101397.72;;;-8.59;100.00
21956;BME280;11142;49.930;8.606;2022-12-18T04:07:33;101398.31;;;-8.42;100.00
21956;BME280;11142;49.930;8.606;2022-12-18T04:10:06;101405.84;;;-8.42;100.00
21956;BME280;11142;49.930;8.606;2022-12-18T04:12:37;101410.00;;;-8.44;100.00
21956;BME280;11142;49.930;8.606;2022-12-18T04:15:13;101405.53;;;-8.51;100.00
21956;BME280;11142;49.930;8.606;2022-12-18T04:17:49;101406.22;;;-8.55;100.00
21956;BME280;11142;49.930;8.606;2022-12-18T04:20:35;101407.88;;;-8.56;100.00
21956;BME280;11142;49.930;8.606;2022-12-18T04:23:06;101405.72;;;-8.47;100.00
21956;BME280;11142;49.930;8.606;2022-12-18T04:25:38;101399.84;;;-8.46;100.00
21956;BME280;11142;49.930;8.606;2022-12-18T04:28:12;101398.19;;;-8.45;100.00
21956;BME280;11142;49.930;8.606;2022-12-18T04:30:54;101395.97;;;-8.38;100.00
21956;BME280;11142;49.930;8.606;2022-12-18T04:33:49;101390.34;;;-8.31;100.00
21956;BME280;11142;49.930;8.606;2022-12-18T04:36:21;101386.84;;;-8.34;100.00
21956;BME280;11142;49.930;8.606;2022-12-18T04:38:54;101391.28;;;-8.26;100.00
21956;BME280;11142;49.930;8.606;2022-12-18T04:41:26;101390.44;;;-8.26;100.00
21956;BME280;11142;49.930;8.606;2022-12-18T04:43:58;101381.72;;;-8.37;100.00
21956;BME280;11142;49.930;8.606;2022-12-18T04:46:35;101376.34;;;-8.46;100.00
21956;BME280;11142;49.930;8.606;2022-12-18T04:49:09;101376.06;;;-8.55;100.00
21956;BME280;11142;49.930;8.606;2022-12-18T04:51:41;101377.78;;;-8.54;100.00
21956;BME280;11142;49.930;8.606;2022-12-18T04:54:19;101379.13;;;-8.39;100.00
21956;BME280;11142;49.930;8.606;2022-12-18T04:56:48;101383.94;;;-8.20;100.00
21956;BME280;11142;49.930;8.606;2022-12-18T04:59:18;101387.44;;;-8.15;100.00
21956;BME280;11142;49.930;8.606;2022-12-18T05:01:55;101393.66;;;-8.32;100.00
21956;BME280;11142;49.930;8.606;2022-12-18T05:04:29;101398.38;;;-8.41;100.00
21956;BME280;11142;49.930;8.606;2022-12-18T05:07:13;101405.00;;;-8.43;100.00
21956;BME280;11142;49.930;8.606;2022-12-18T05:09:43;101402.47;;;-8.43;100.00
21956;BME280;11142;49.930;8.606;2022-12-18T05:12:15;101401.75;;;-8.40;100.00
21956;BME280;11142;49.930;8.606;2022-12-18T05:14:44;101406.44;;;-8.49;100.00
21956;BME280;11142;49.930;8.606;2022-12-18T05:17:15;101402.38;;;-8.46;100.00
21956;BME280;11142;49.930;8.606;2022-12-18T05:19:47;101399.72;;;-8.50;100.00
21956;BME280;11142;49.930;8.606;2022-12-18T05:22:20;101401.28;;;-8.54;100.00
21956;BME280;11142;49.930;8.606;2022-12-18T05:24:50;101407.66;;;-8.64;100.00
21956;BME280;11142;49.930;8.606;2022-12-18T05:27:19;101410.06;;;-8.67;100.00
21956;BME280;11142;49.930;8.606;2022-12-18T05:29:49;101423.22;;;-8.74;100.00
21956;BME280;11142;49.930;8.606;2022-12-18T05:32:18;101416.41;;;-8.76;100.00
21956;BME280;11142;49.930;8.606;2022-12-18T05:34:49;101419.06;;;-8.72;100.00
21956;BME280;11142;49.930;8.606;2022-12-18T05:37:47;101412.56;;;-8.67;100.00
21956;BME280;11142;49.930;8.606;2022-12-18T05:40:22;101418.19;;;-8.74;100.00
21956;BME280;11142;49.930;8.606;2022-12-18T05:42:50;101415.56;;;-8.77;100.00
21956;BME280;11142;49.930;8.606;2022-12-18T05:45:20;101412.75;;;-8.84;100.00
21956;BME280;11142;49.930;8.606;2022-12-18T05:47:50;101405.84;;;-8.90;100.00
21956;BME280;11142;49.930;8.606;2022-12-18T05:50:22;101401.13;;;-8.82;100.00
21956;BME280;11142;49.930;8.606;2022-12-18T05:52:52;101398.75;;;-8.78;100.00
21956;BME280;11142;49.930;8.606;2022-12-18T05:55:22;101404.63;;;-8.77;100.00
21956;BME280;11142;49.930;8.606;2022-12-18T05:57:52;101403.19;;;-8.71;100.00
21956;BME280;11142;49.930;8.606;2022-12-18T06:00:32;101398.16;;;-8.71;100.00
21956;BME280;11142;49.930;8.606;2022-12-18T06:03:04;101404.00;;;-8.72;100.00
21956;BME280;11142;49.930;8.606;2022-12-18T06:05:38;101400.47;;;-8.77;100.00
21956;BME280;11142;49.930;8.606;2022-12-18T06:08:42;101403.25;;;-8.69;100.00
21956;BME280;11142;49.930;8.606;2022-12-18T06:11:17;101402.34;;;-8.71;100.00
21956;BME280;11142;49.930;8.606;2022-12-18T06:13:46;101407.53;;;-8.67;100.00
21956;BME280;11142;49.930;8.606;2022-12-18T06:16:23;101416.59;;;-8.46;100.00
21956;BME280;11142;49.930;8.606;2022-12-18T06:18:55;101422.94;;;-8.57;100.00
21956;BME280;11142;49.930;8.606;2022-12-18T06:21:30;101419.63;;;-8.56;100.00
21956;BME280;11142;49.930;8.606;2022-12-18T06:24:01;101417.38;;;-8.73;100.00
21956;BME280;11142;49.930;8.606;2022-12-18T06:26:46;101438.88;;;-8.81;100.00
21956;BME280;11142;49.930;8.606;2022-12-18T06:29:19;101435.34;;;-8.86;100.00
21956;BME280;11142;49.930;8.606;2022-12-18T06:31:48;101437.47;;;-8.96;100.00
21956;BME280;11142;49.930;8.606;2022-12-18T06:34:24;101440.31;;;-8.87;100.00
21956;BME280;11142;49.930;8.606;2022-12-18T06:37:09;101442.75;;;-8.67;100.00
21956;BME280;11142;49.930;8.606;2022-12-18T06:39:40;101454.84;;;-8.56;100.00
21956;BME280;11142;49.930;8.606;2022-12-18T06:42:12;101453.56;;;-8.45;100.00
21956;BME280;11142;49.930;8.606;2022-12-18T06:44:46;101468.75;;;-8.42;100.00
21956;BME280;11142;49.930;8.606;2022-12-18T06:47:14;101461.91;;;-8.21;100.00
21956;BME280;11142;49.930;8.606;2022-12-18T06:49:43;101460.31;;;-8.19;100.00
21956;BME280;11142;49.930;8.606;2022-12-18T06:52:21;101456.56;;;-8.05;100.00
21956;BME280;11142;49.930;8.606;2022-12-18T06:54:57;101460.03;;;-8.03;100.00
21956;BME280;11142;49.930;8.606;2022-12-18T06:57:26;101467.28;;;-7.87;100.00
21956;BME280;11142;49.930;8.606;2022-12-18T06:59:54;101464.22;;;-7.77;100.00
21956;BME280;11142;49.930;8.606;2022-12-18T07:02:36;101460.16;;;-7.73;100.00
21956;BME280;11142;49.930;8.606;2022-12-18T07:05:07;101461.31;;;-7.64;100.00
21956;BME280;11142;49.930;8.606;2022-12-18T07:07:53;101463.41;;;-7.50;100.00
21956;BME280;11142;49.930;8.606;2022-12-18T07:10:42;101460.53;;;-7.36;100.00
21956;BME280;11142;49.930;8.606;2022-12-18T07:13:24;101464.19;;;-7.26;100.00
21956;BME280;11142;49.930;8.606;2022-12-18T07:15:53;101473.34;;;-7.28;100.00
21956;BME280;11142;49.930;8.606;2022-12-18T07:18:29;101478.56;;;-7.22;100.00
21956;BME280;11142;49.930;8.606;2022-12-18T07:21:01;101481.09;;;-7.22;100.00
21956;BME280;11142;49.930;8.606;2022-12-18T07:23:41;101475.19;;;-7.23;100.00
21956;BME280;11142;49.930;8.606;2022-12-18T07:26:19;101488.03;;;-7.15;100.00
21956;BME280;11142;49.930;8.606;2022-12-18T07:29:03;101489.56;;;-7.20;100.00
21956;BME280;11142;49.930;8.606;2022-12-18T07:31:34;101488.75;;;-7.19;100.00
21956;BME280;11142;49.930;8.606;2022-12-18T07:34:11;101480.88;;;-7.30;100.00
21956;BME280;11142;49.930;8.606;2022-12-18T07:36:55;101477.94;;;-7.42;100.00
21956;BME280;11142;49.930;8.606;2022-12-18T07:39:44;101477.81;;;-7.46;100.00
21956;BME280;11142;49.930;8.606;2022-12-18T07:42:22;101478.25;;;-7.33;100.00
21956;BME280;11142;49.930;8.606;2022-12-18T07:45:20;101485.38;;;-7.46;100.00
21956;BME280;11142;49.930;8.606;2022-12-18T07:48:04;101476.09;;;-7.47;100.00
21956;BME280;11142;49.930;8.606;2022-12-18T07:51:04;101481.59;;;-7.32;100.00
21956;BME280;11142;49.930;8.606;2022-12-18T07:54:16;101487.84;;;-7.21;100.00
21956;BME280;11142;49.930;8.606;2022-12-18T07:56:55;101492.19;;;-7.17;100.00
21956;BME280;11142;49.930;8.606;2022-12-18T07:59:49;101485.09;;;-7.56;100.00
21956;BME280;11142;49.930;8.606;2022-12-18T08:02:21;101492.41;;;-7.63;100.00
21956;BME280;11142;49.930;8.606;2022-12-18T08:04:51;101496.47;;;-7.67;100.00
21956;BME280;11142;49.930;8.606;2022-12-18T08:07:28;101503.03;;;-7.46;100.00
21956;BME280;11142;49.930;8.606;2022-12-18T08:09:56;101508.53;;;-7.31;100.00
21956;BME280;11142;49.930;8.606;2022-12-18T08:13:03;101501.34;;;-7.19;100.00
21956;BME280;11142;49.930;8.606;2022-12-18T08:15:46;101509.06;;;-7.15;100.00
21956;BME280;11142;49.930;8.606;2022-12-18T08:18:31;101503.88;;;-6.91;100.00
21956;BME280;11142;49.930;8.606;2022-12-18T08:21:07;101516.59;;;-6.88;100.00
21956;BME280;11142;49.930;8.606;2022-12-18T08:23:49;101509.53;;;-7.00;100.00
21956;BME280;11142;49.930;8.606;2022-12-18T08:26:33;101512.03;;;-6.73;100.00
21956;BME280;11142;49.930;8.606;2022-12-18T08:29:40;101505.19;;;-6.47;100.00
21956;BME280;11142;49.930;8.606;2022-12-18T08:32:19;101501.84;;;-6.46;100.00
21956;BME280;11142;49.930;8.606;2022-12-18T08:34:50;101503.50;;;-6.47;100.00
21956;BME280;11142;49.930;8.606;2022-12-18T08:37:22;101502.44;;;-6.55;100.00
21956;BME280;11142;49.930;8.606;2022-12-18T08:40:01;101500.94;;;-6.48;100.00
21956;BME280;11142;49.930;8.606;2022-12-18T08:42:32;101507.34;;;-6.29;100.00
21956;BME280;11142;49.930;8.606;2022-12-18T08:45:19;101490.75;;;-5.90;100.00
21956;BME280;11142;49.930;8.606;2022-12-18T08:47:50;101487.41;;;-5.53;100.00
21956;BME280;11142;49.930;8.606;2022-12-18T08:50:22;101486.31;;;-5.28;100.00
21956;BME280;11142;49.930;8.606;2022-12-18T08:52:52;101483.69;;;-4.94;100.00
21956;BME280;11142;49.930;8.606;2022-12-18T08:55:21;101473.19;;;-4.73;100.00
21956;BME280;11142;49.930;8.606;2022-12-18T08:57:53;101470.63;;;-4.33;100.00
21956;BME280;11142;49.930;8.606;2022-12-18T09:00:23;101478.47;;;-4.19;100.00
21956;BME280;11142;49.930;8.606;2022-12-18T09:02:55;101487.03;;;-4.56;100.00
21956;BME280;11142;49.930;8.606;2022-12-18T09:05:25;101485.41;;;-5.66;100.00
21956;BME280;11142;49.930;8.606;2022-12-18T09:07:58;101478.22;;;-5.85;100.00
21956;BME280;11142;49.930;8.606;2022-12-18T09:10:32;101475.16;;;-4.99;100.00
21956;BME280;11142;49.930;8.606;2022-12-18T09:13:10;101473.66;;;-4.49;100.00
21956;BME280;11142;49.930;8.606;2022-12-18T09:15:54;101483.63;;;-4.58;100.00
21956;BME280;11142;49.930;8.606;2022-12-18T09:18:27;101490.78;;;-4.78;100.00
21956;BME280;11142;49.930;8.606;2022-12-18T09:20:58;101498.16;;;-4.06;100.00
21956;BME280;11142;49.930;8.606;2022-12-18T09:23:33;101503.16;;;-4.09;100.00
21956;BME280;11142;49.930;8.606;2022-12-18T09:26:11;101496.53;;;-3.52;100.00
21956;BME280;11142;49.930;8.606;2022-12-18T09:28:43;101506.81;;;-3.46;100.00
21956;BME280;11142;49.930;8.606;2022-12-18T09:31:18;101506.28;;;-3.76;100.00
21956;BME280;11142;49.930;8.606;2022-12-18T09:33:47;101510.06;;;-2.36;100.00
21956;BME280;11142;49.930;8.606;2022-12-18T09:36:34;101505.81;;;-1.54;100.00
21956;BME280;11142;49.930;8.606;2022-12-18T09:39:03;101508.84;;;-0.87;100.00
21956;BME280;11142;49.930;8.606;2022-12-18T09:41:39;101504.88;;;-0.32;100.00
21956;BME280;11142;49.930;8.606;2022-12-18T09:44:39;101495.66;;;0.59;100.00
21956;BME280;11142;49.930;8.606;2022-12-18T09:47:16;101487.97;;;0.67;100.00
21956;BME280;11142;49.930;8.606;2022-12-18T09:50:43;101492.25;;;0.18;100.00
21956;BME280;11142;49.930;8.606;2022-12-18T09:53:28;101498.97;;;-0.12;100.00
21956;BME280;11142;49.930;8.606;2022-12-18T09:56:02;101509.84;;;-0.60;100.00
21956;BME280;11142;49.930;8.606;2022-12-18T09:58:57;101503.88;;;-0.60;100.00
21956;BME280;11142;49.930;8.606;2022-12-18T10:01:28;101496.44;;;-0.03;96.62
21956;BME280;11142;49.930;8.606;2022-12-18T10:04:16;101502.38;;;-0.14;98.73
21956;BME280;11142;49.930;8.606;2022-12-18T10:06:48;101509.97;;;-0.32;99.92
21956;BME280;11142;49.930;8.606;2022-12-18T10:09:57;101508.66;;;-1.13;100.00
21956;BME280;11142;49.930;8.606;2022-12-18T10:12:30;101508.72;;;-1.04;100.00
21956;BME280;11142;49.930;8.606;2022-12-18T10:15:02;101504.00;;;-0.28;100.00
21956;BME280;11142;49.930;8.606;2022-12-18T10:17:35;101500.75;;;0.09;100.00
21956;BME280;11142;49.930;8.606;2022-12-18T10:20:12;101505.88;;;0.33;98.62
21956;BME280;11142;49.930;8.606;2022-12-18T10:22:45;101504.16;;;0.61;99.54
21956;BME280;11142;49.930;8.606;2022-12-18T10:25:18;101498.19;;;0.26;96.85
21956;BME280;11142;49.930;8.606;2022-12-18T10:27:50;101482.84;;;-0.05;97.04
21956;BME280;11142;49.930;8.606;2022-12-18T10:30:22;101486.91;;;-0.57;98.21
21956;BME280;11142;49.930;8.606;2022-12-18T10:32:54;101483.66;;;-0.21;99.05
21956;BME280;11142;49.930;8.606;2022-12-18T10:35:25;101469.25;;;-0.10;96.01
21956;BME280;11142;49.930;8.606;2022-12-18T10:38:02;101474.31;;;-0.13;96.70
21956;BME280;11142;49.930;8.606;2022-12-18T10:40:33;101477.56;;;-0.56;97.62
21956;BME280;11142;49.930;8.606;2022-12-18T10:43:19;101489.81;;;-1.38;100.00
21956;BME280;11142;49.930;8.606;2022-12-18T10:46:00;101488.38;;;-2.05;100.00
21956;BME280;11142;49.930;8.606;2022-12-18T10:48:30;101492.91;;;-1.75;100.00
21956;BME280;11142;49.930;8.606;2022-12-18T10:51:01;101489.50;;;-1.74;100.00
21956;BME280;11142;49.930;8.606;2022-12-18T10:53:40;101488.09;;;-1.43;100.00
21956;BME280;11142;49.930;8.606;2022-12-18T10:56:11;101491.25;;;-1.70;100.00
21956;BME280;11142;49.930;8.606;2022-12-18T10:58:55;101481.06;;;-1.72;100.00
21956;BME280;11142;49.930;8.606;2022-12-18T11:01:45;101483.59;;;-1.73;100.00
21956;BME280;11142;49.930;8.606;2022-12-18T11:04:17;101480.59;;;-1.22;100.00
21956;BME280;11142;49.930;8.606;2022-12-18T11:06:55;101486.72;;;-0.96;100.00
21956;BME280;11142;49.930;8.606;2022-12-18T11:09:30;101488.56;;;-0.66;100.00
21956;BME280;11142;49.930;8.606;2022-12-18T11:12:01;101488.84;;;0.19;94.87
21956;BME280;11142;49.930;8.606;2022-12-18T11:14:32;101474.41;;;0.37;86.77
21956;BME280;11142;49.930;8.606;2022-12-18T11:17:03;101476.91;;;0.22;88.67
21956;BME280;11142;49.930;8.606;2022-12-18T11:19:52;101470.94;;;0.87;86.85
21956;BME280;11142;49.930;8.606;2022-12-18T11:22:26;101486.91;;;1.60;83.11
21956;BME280;11142;49.930;8.606;2022-12-18T11:24:59;101484.25;;;1.81;78.01
21956;BME280;11142;49.930;8.606;2022-12-18T11:27:59;101476.00;;;1.14;76.66
21956;BME280;11142;49.930;8.606;2022-12-18T11:30:45;101477.75;;;1.08;78.65
21956;BME280;11142;49.930;8.606;2022-12-18T11:33:21;101477.69;;;1.23;77.53
21956;BME280;11142;49.930;8.606;2022-12-18T11:36:04;101470.84;;;1.32;79.92
21956;BME280;11142;49.930;8.606;2022-12-18T11:39:06;101478.59;;;0.94;80.51
21956;BME280;11142;49.930;8.606;2022-12-18T11:42:05;101474.22;;;1.42;79.08
21956;BME280;11142;49.930;8.606;2022-12-18T11:44:55;101468.31;;;1.22;79.23
21956;BME280;11142;49.930;8.606;2022-12-18T11:47:37;101466.34;;;1.78;76.39
21956;BME280;11142;49.930;8.606;2022-12-18T11:50:10;101467.06;;;2.04;76.53
21956;BME280;11142;49.930;8.606;2022-12-18T11:52:48;101465.47;;;1.87;74.28
21956;BME280;11142;49.930;8.606;2022-12-18T11:55:31;101453.25;;;2.22;76.19
21956;BME280;11142;49.930;8.606;2022-12-18T11:58:14;101461.94;;;2.06;76.91
21956;BME280;11142;49.930;8.606;2022-12-18T12:00:57;101454.66;;;2.62;71.39
21956;BME280;11142;49.930;8.606;2022-12-18T12:06:23;101481.00;;;1.50;77.82
21956;BME280;11142;49.930;8.606;2022-12-18T12:09:02;101469.09;;;1.45;77.29
21956;BME280;11142;49.930;8.606;2022-12-18T12:11:53;101466.69;;;0.98;77.85
21956;BME280;11142;49.930;8.606;2022-12-18T12:14:26;101469.22;;;0.99;77.76
21956;BME280;11142;49.930;8.606;2022-12-18T12:16:57;101468.41;;;0.64;80.71
21956;BME280;11142;49.930;8.606;2022-12-18T12:19:30;101464.84;;;1.33;79.58
21956;BME280;11142;49.930;8.606;2022-12-18T12:22:10;101460.78;;;0.46;81.64
21956;BME280;11142;49.930;8.606;2022-12-18T12:25:01;101457.38;;;0.15;85.59
21956;BME280;11142;49.930;8.606;2022-12-18T12:27:36;101442.88;;;0.02;88.23
21956;BME280;11142;49.930;8.606;2022-12-18T12:30:18;101448.84;;;-0.10;91.38
21956;BME280;11142;49.930;8.606;2022-12-18T12:32:53;101443.66;;;-0.28;92.14
21956;BME280;11142;49.930;8.606;2022-12-18T12:35:30;101437.66;;;-0.56;91.94
21956;BME280;11142;49.930;8.606;2022-12-18T12:38:04;101441.19;;;-0.07;94.41
21956;BME280;11142;49.930;8.606;2022-12-18T12:40:49;101444.59;;;0.56;89.88
21956;BME280;11142;49.930;8.606;2022-12-18T12:43:35;101431.00;;;0.49;84.73
21956;BME280;11142;49.930;8.606;2022-12-18T12:46:20;101436.91;;;0.61;87.82
21956;BME280;11142;49.930;8.606;2022-12-18T12:49:09;101435.19;;;0.76;88.04
21956;BME280;11142;49.930;8.606;2022-12-18T12:51:47;101433.53;;;0.60;84.91
21956;BME280;11142;49.930;8.606;2022-12-18T12:54:32;101435.25;;;0.47;86.76
21956;BME280;11142;49.930;8.606;2022-12-18T12:57:16;101432.69;;;0.11;89.71
21956;BME280;11142;49.930;8.606;2022-12-18T13:00:01;101425.88;;;-0.04;94.43
21956;BME280;11142;49.930;8.606;2022-12-18T13:02:42;101423.34;;;0.24;94.91
21956;BME280;11142;49.930;8.606;2022-12-18T13:05:23;101434.41;;;0.15;90.66
21956;BME280;11142;49.930;8.606;2022-12-18T13:07:59;101419.06;;;0.05;92.24
21956;BME280;11142;49.930;8.606;2022-12-18T13:10:54;101425.03;;;0.16;92.99
21956;BME280;11142;49.930;8.606;2022-12-18T13:13:49;101418.13;;;-0.46;93.20
21956;BME280;11142;49.930;8.606;2022-12-18T13:16:24;101424.84;;;-0.66;99.50
21956;BME280;11142;49.930;8.606;2022-12-18T13:19:18;101415.63;;;-0.29;100.00
21956;BME280;11142;49.930;8.606;2022-12-18T13:21:52;101405.41;;;-0.41;100.00
21956;BME280;11142;49.930;8.606;2022-12-18T13:24:25;101359.34;;;-1.05;100.00
21956;BME280;11142;49.930;8.606;2022-12-18T13:26:55;101387.19;;;-1.37;100.00
21956;BME280;11142;49.930;8.606;2022-12-18T13:32:28;101380.53;;;-1.04;100.00
21956;BME280;11142;49.930;8.606;2022-12-18T13:37:53;101380.22;;;-1.62;100.00
21956;BME280;11142;49.930;8.606;2022-12-18T13:43:22;101370.00;;;-1.67;100.00
21956;BME280;11142;49.930;8.606;2022-12-18T13:46:20;101373.44;;;-1.58;100.00
21956;BME280;11142;49.930;8.606;2022-12-18T13:49:00;101369.19;;;-1.61;100.00